America, Illinois
Current Conditions -  °F | °C
As of 3:35 PM on Monday 24 Nov 2014 (Local Time) from KCIR Reporting Station
Scattered Clouds Scattered Clouds  
Wind Chill: 54°   Ceiling: Unl
Heat Index: 54°   Visibility: 10mi
Dew Point: 32°   Wind: 10mph
Humidity: 43%   Direction: 250°WSW
Pressure: 29.83"   Gusts: 17mph
Location:  37.1575°N, 89.1781°W
Report Text: KCIR 242135Z AUTO 25009G15KT 10SM SCT060 SCT070 12/00 A2983 RMK AO2 T01211001
Loading
Personal Weather Stations






























Interactive Weather Map New forecast layout! Learn more

10-Day Weather Forecast

Advertisements
Track Severe Weather on mobile